sensor_id;sensor_type;location;lat;lon;timestamp;P1;durP1;ratioP1;P2;durP2;ratioP2
72209;SDS011;60113;48.762;12.302;2022-08-16T00:01:59;5.10;;;2.35;;
72209;SDS011;60113;48.762;12.302;2022-08-16T00:04:25;6.88;;;2.55;;
72209;SDS011;60113;48.762;12.302;2022-08-16T00:06:50;2.92;;;2.13;;
72209;SDS011;60113;48.762;12.302;2022-08-16T00:09:16;4.32;;;2.70;;
72209;SDS011;60113;48.762;12.302;2022-08-16T00:11:43;6.38;;;2.30;;
72209;SDS011;60113;48.762;12.302;2022-08-16T00:14:15;6.25;;;2.38;;
72209;SDS011;60113;48.762;12.302;2022-08-16T00:16:44;4.25;;;2.65;;
72209;SDS011;60113;48.762;12.302;2022-08-16T00:19:11;8.80;;;2.72;;
72209;SDS011;60113;48.762;12.302;2022-08-16T00:21:38;3.45;;;2.05;;
72209;SDS011;60113;48.762;12.302;2022-08-16T00:24:04;3.00;;;2.45;;
72209;SDS011;60113;48.762;12.302;2022-08-16T00:26:30;5.10;;;2.75;;
72209;SDS011;60113;48.762;12.302;2022-08-16T00:28:56;4.13;;;2.45;;
72209;SDS011;60113;48.762;12.302;2022-08-16T00:31:21;4.18;;;2.72;;
72209;SDS011;60113;48.762;12.302;2022-08-16T00:33:47;6.88;;;2.67;;
72209;SDS011;60113;48.762;12.302;2022-08-16T00:36:12;2.70;;;2.25;;
72209;SDS011;60113;48.762;12.302;2022-08-16T00:38:38;7.53;;;2.70;;
72209;SDS011;60113;48.762;12.302;2022-08-16T00:41:04;5.43;;;2.33;;
72209;SDS011;60113;48.762;12.302;2022-08-16T00:43:31;4.45;;;2.70;;
72209;SDS011;60113;48.762;12.302;2022-08-16T00:48:25;4.78;;;2.70;;
72209;SDS011;60113;48.762;12.302;2022-08-16T00:50:51;6.13;;;2.30;;
72209;SDS011;60113;48.762;12.302;2022-08-16T00:53:17;4.82;;;2.90;;
72209;SDS011;60113;48.762;12.302;2022-08-16T00:55:46;2.88;;;2.10;;
72209;SDS011;60113;48.762;12.302;2022-08-16T00:58:14;5.15;;;2.70;;
72209;SDS011;60113;48.762;12.302;2022-08-16T01:00:42;6.63;;;2.80;;
72209;SDS011;60113;48.762;12.302;2022-08-16T01:03:10;7.63;;;2.53;;
72209;SDS011;60113;48.762;12.302;2022-08-16T01:05:37;5.53;;;2.70;;
72209;SDS011;60113;48.762;12.302;2022-08-16T01:08:05;5.75;;;2.80;;
72209;SDS011;60113;48.762;12.302;2022-08-16T01:10:32;5.50;;;2.78;;
72209;SDS011;60113;48.762;12.302;2022-08-16T01:12:59;6.95;;;2.63;;
72209;SDS011;60113;48.762;12.302;2022-08-16T01:15:45;4.75;;;2.83;;
72209;SDS011;60113;48.762;12.302;2022-08-16T01:18:14;4.00;;;2.50;;
72209;SDS011;60113;48.762;12.302;2022-08-16T01:20:44;6.30;;;2.70;;
72209;SDS011;60113;48.762;12.302;2022-08-16T01:23:17;5.65;;;2.90;;
72209;SDS011;60113;48.762;12.302;2022-08-16T01:25:53;4.28;;;3.22;;
72209;SDS011;60113;48.762;12.302;2022-08-16T01:28:19;4.15;;;2.67;;
72209;SDS011;60113;48.762;12.302;2022-08-16T01:30:49;4.50;;;2.75;;
72209;SDS011;60113;48.762;12.302;2022-08-16T01:33:19;3.92;;;2.85;;
72209;SDS011;60113;48.762;12.302;2022-08-16T01:36:04;15.15;;;2.90;;
72209;SDS011;60113;48.762;12.302;2022-08-16T01:38:33;8.52;;;2.80;;
72209;SDS011;60113;48.762;12.302;2022-08-16T01:41:06;4.07;;;2.20;;
72209;SDS011;60113;48.762;12.302;2022-08-16T01:43:34;5.07;;;2.50;;
72209;SDS011;60113;48.762;12.302;2022-08-16T01:46:03;4.95;;;2.60;;
72209;SDS011;60113;48.762;12.302;2022-08-16T01:48:32;9.73;;;2.75;;
72209;SDS011;60113;48.762;12.302;2022-08-16T01:50:59;8.35;;;4.38;;
72209;SDS011;60113;48.762;12.302;2022-08-16T01:53:26;21.85;;;10.25;;
72209;SDS011;60113;48.762;12.302;2022-08-16T01:55:53;15.48;;;7.10;;
72209;SDS011;60113;48.762;12.302;2022-08-16T01:58:18;24.13;;;9.18;;
72209;SDS011;60113;48.762;12.302;2022-08-16T02:00:46;26.33;;;9.73;;
72209;SDS011;60113;48.762;12.302;2022-08-16T02:03:13;10.52;;;5.43;;
72209;SDS011;60113;48.762;12.302;2022-08-16T02:05:39;20.38;;;7.80;;
72209;SDS011;60113;48.762;12.302;2022-08-16T02:08:06;14.05;;;5.97;;
72209;SDS011;60113;48.762;12.302;2022-08-16T02:10:34;15.18;;;6.68;;
72209;SDS011;60113;48.762;12.302;2022-08-16T02:13:03;14.70;;;6.07;;
72209;SDS011;60113;48.762;12.302;2022-08-16T02:15:31;8.85;;;4.55;;
72209;SDS011;60113;48.762;12.302;2022-08-16T02:17:59;7.20;;;4.45;;
72209;SDS011;60113;48.762;12.302;2022-08-16T02:20:30;7.28;;;4.30;;
72209;SDS011;60113;48.762;12.302;2022-08-16T02:22:58;7.43;;;3.72;;
72209;SDS011;60113;48.762;12.302;2022-08-16T02:25:25;4.57;;;3.58;;
72209;SDS011;60113;48.762;12.302;2022-08-16T02:27:51;7.32;;;3.40;;
72209;SDS011;60113;48.762;12.302;2022-08-16T02:30:22;7.38;;;3.50;;
72209;SDS011;60113;48.762;12.302;2022-08-16T02:32:50;6.90;;;3.38;;
72209;SDS011;60113;48.762;12.302;2022-08-16T02:35:16;5.28;;;3.60;;
72209;SDS011;60113;48.762;12.302;2022-08-16T02:37:43;5.38;;;3.30;;
72209;SDS011;60113;48.762;12.302;2022-08-16T02:40:08;6.95;;;3.40;;
72209;SDS011;60113;48.762;12.302;2022-08-16T02:42:35;4.43;;;3.20;;
72209;SDS011;60113;48.762;12.302;2022-08-16T02:45:01;6.35;;;3.17;;
72209;SDS011;60113;48.762;12.302;2022-08-16T02:47:26;6.55;;;3.33;;
72209;SDS011;60113;48.762;12.302;2022-08-16T02:49:52;5.82;;;3.08;;
72209;SDS011;60113;48.762;12.302;2022-08-16T02:52:18;6.32;;;3.58;;
72209;SDS011;60113;48.762;12.302;2022-08-16T02:54:43;7.93;;;3.42;;
72209;SDS011;60113;48.762;12.302;2022-08-16T02:57:09;7.72;;;3.63;;
72209;SDS011;60113;48.762;12.302;2022-08-16T02:59:35;5.45;;;3.35;;
72209;SDS011;60113;48.762;12.302;2022-08-16T03:02:00;7.10;;;3.25;;
72209;SDS011;60113;48.762;12.302;2022-08-16T03:04:26;4.90;;;3.17;;
72209;SDS011;60113;48.762;12.302;2022-08-16T03:06:52;5.43;;;3.80;;
72209;SDS011;60113;48.762;12.302;2022-08-16T03:09:25;5.70;;;3.30;;
72209;SDS011;60113;48.762;12.302;2022-08-16T03:11:51;4.03;;;3.20;;
72209;SDS011;60113;48.762;12.302;2022-08-16T03:14:16;7.35;;;3.25;;
72209;SDS011;60113;48.762;12.302;2022-08-16T03:16:42;4.05;;;3.17;;
72209;SDS011;60113;48.762;12.302;2022-08-16T03:19:08;4.05;;;2.97;;
72209;SDS011;60113;48.762;12.302;2022-08-16T03:21:33;5.00;;;2.80;;
72209;SDS011;60113;48.762;12.302;2022-08-16T03:24:00;8.88;;;2.90;;
72209;SDS011;60113;48.762;12.302;2022-08-16T03:26:25;5.07;;;2.90;;
72209;SDS011;60113;48.762;12.302;2022-08-16T03:28:51;5.90;;;3.17;;
72209;SDS011;60113;48.762;12.302;2022-08-16T03:31:16;4.45;;;2.33;;
72209;SDS011;60113;48.762;12.302;2022-08-16T03:33:41;4.32;;;2.65;;
72209;SDS011;60113;48.762;12.302;2022-08-16T03:36:07;3.17;;;2.40;;
72209;SDS011;60113;48.762;12.302;2022-08-16T03:38:34;3.30;;;2.50;;
72209;SDS011;60113;48.762;12.302;2022-08-16T03:41:00;2.47;;;2.28;;
72209;SDS011;60113;48.762;12.302;2022-08-16T03:43:27;3.45;;;2.20;;
72209;SDS011;60113;48.762;12.302;2022-08-16T03:45:54;4.50;;;2.17;;
72209;SDS011;60113;48.762;12.302;2022-08-16T03:48:25;5.43;;;2.40;;
72209;SDS011;60113;48.762;12.302;2022-08-16T03:50:53;3.03;;;2.30;;
72209;SDS011;60113;48.762;12.302;2022-08-16T03:53:19;6.53;;;3.30;;
72209;SDS011;60113;48.762;12.302;2022-08-16T03:55:45;6.65;;;2.55;;
72209;SDS011;60113;48.762;12.302;2022-08-16T03:58:11;7.50;;;2.92;;
72209;SDS011;60113;48.762;12.302;2022-08-16T04:00:37;3.63;;;2.25;;
72209;SDS011;60113;48.762;12.302;2022-08-16T04:03:03;3.78;;;2.20;;
72209;SDS011;60113;48.762;12.302;2022-08-16T04:05:37;6.57;;;3.03;;
72209;SDS011;60113;48.762;12.302;2022-08-16T04:08:05;7.05;;;2.85;;
72209;SDS011;60113;48.762;12.302;2022-08-16T04:10:33;3.72;;;2.58;;
72209;SDS011;60113;48.762;12.302;2022-08-16T04:12:59;6.55;;;3.22;;
72209;SDS011;60113;48.762;12.302;2022-08-16T04:15:25;5.22;;;3.58;;
72209;SDS011;60113;48.762;12.302;2022-08-16T04:17:53;4.90;;;3.65;;
72209;SDS011;60113;48.762;12.302;2022-08-16T04:20:19;6.57;;;3.20;;
72209;SDS011;60113;48.762;12.302;2022-08-16T04:22:45;6.25;;;3.30;;
72209;SDS011;60113;48.762;12.302;2022-08-16T04:25:11;5.53;;;3.15;;
72209;SDS011;60113;48.762;12.302;2022-08-16T04:27:38;5.25;;;3.30;;
72209;SDS011;60113;48.762;12.302;2022-08-16T04:30:07;3.85;;;2.70;;
72209;SDS011;60113;48.762;12.302;2022-08-16T04:32:37;4.43;;;2.97;;
72209;SDS011;60113;48.762;12.302;2022-08-16T04:35:06;3.45;;;2.72;;
72209;SDS011;60113;48.762;12.302;2022-08-16T04:37:33;5.90;;;2.95;;
72209;SDS011;60113;48.762;12.302;2022-08-16T04:39:59;4.57;;;2.72;;
72209;SDS011;60113;48.762;12.302;2022-08-16T04:42:25;5.43;;;3.83;;
72209;SDS011;60113;48.762;12.302;2022-08-16T04:44:51;8.50;;;5.28;;
72209;SDS011;60113;48.762;12.302;2022-08-16T04:47:17;8.63;;;4.57;;
72209;SDS011;60113;48.762;12.302;2022-08-16T04:49:42;5.90;;;4.10;;
72209;SDS011;60113;48.762;12.302;2022-08-16T04:52:08;5.40;;;3.08;;
72209;SDS011;60113;48.762;12.302;2022-08-16T04:54:34;9.75;;;3.35;;
72209;SDS011;60113;48.762;12.302;2022-08-16T04:57:00;4.30;;;3.00;;
72209;SDS011;60113;48.762;12.302;2022-08-16T04:59:25;14.13;;;3.42;;
72209;SDS011;60113;48.762;12.302;2022-08-16T05:01:51;4.07;;;3.30;;
72209;SDS011;60113;48.762;12.302;2022-08-16T05:04:21;8.85;;;4.28;;
72209;SDS011;60113;48.762;12.302;2022-08-16T05:06:48;4.80;;;3.08;;
72209;SDS011;60113;48.762;12.302;2022-08-16T05:09:14;5.68;;;3.38;;
72209;SDS011;60113;48.762;12.302;2022-08-16T05:11:40;4.95;;;3.38;;
72209;SDS011;60113;48.762;12.302;2022-08-16T05:14:05;4.85;;;3.28;;
72209;SDS011;60113;48.762;12.302;2022-08-16T05:16:31;8.55;;;3.03;;
72209;SDS011;60113;48.762;12.302;2022-08-16T05:18:58;8.90;;;2.85;;
72209;SDS011;60113;48.762;12.302;2022-08-16T05:21:26;6.35;;;3.03;;
72209;SDS011;60113;48.762;12.302;2022-08-16T05:23:55;5.05;;;2.95;;
72209;SDS011;60113;48.762;12.302;2022-08-16T05:26:22;3.90;;;2.95;;
72209;SDS011;60113;48.762;12.302;2022-08-16T05:28:49;3.95;;;2.80;;
72209;SDS011;60113;48.762;12.302;2022-08-16T05:31:15;4.63;;;2.95;;
72209;SDS011;60113;48.762;12.302;2022-08-16T05:33:42;5.93;;;3.00;;
72209;SDS011;60113;48.762;12.302;2022-08-16T05:36:08;6.63;;;2.83;;
72209;SDS011;60113;48.762;12.302;2022-08-16T05:38:34;4.28;;;3.67;;
72209;SDS011;60113;48.762;12.302;2022-08-16T05:41:00;10.10;;;3.15;;
72209;SDS011;60113;48.762;12.302;2022-08-16T05:43:27;4.38;;;2.95;;
72209;SDS011;60113;48.762;12.302;2022-08-16T05:45:54;4.70;;;3.20;;
72209;SDS011;60113;48.762;12.302;2022-08-16T05:48:21;5.75;;;3.30;;
72209;SDS011;60113;48.762;12.302;2022-08-16T05:50:50;5.85;;;3.33;;
72209;SDS011;60113;48.762;12.302;2022-08-16T05:53:18;6.78;;;3.40;;
72209;SDS011;60113;48.762;12.302;2022-08-16T05:55:44;9.13;;;3.08;;
72209;SDS011;60113;48.762;12.302;2022-08-16T05:58:29;5.68;;;2.80;;
72209;SDS011;60113;48.762;12.302;2022-08-16T06:00:54;5.93;;;2.60;;
72209;SDS011;60113;48.762;12.302;2022-08-16T06:03:20;5.18;;;2.75;;
72209;SDS011;60113;48.762;12.302;2022-08-16T06:05:46;3.67;;;2.55;;
72209;SDS011;60113;48.762;12.302;2022-08-16T06:08:11;4.03;;;2.47;;
72209;SDS011;60113;48.762;12.302;2022-08-16T06:10:37;5.05;;;2.78;;
72209;SDS011;60113;48.762;12.302;2022-08-16T06:13:02;5.38;;;2.70;;
72209;SDS011;60113;48.762;12.302;2022-08-16T06:15:28;12.75;;;2.60;;
72209;SDS011;60113;48.762;12.302;2022-08-16T06:17:53;3.35;;;2.22;;
72209;SDS011;60113;48.762;12.302;2022-08-16T06:20:23;2.72;;;2.30;;
72209;SDS011;60113;48.762;12.302;2022-08-16T06:22:51;6.63;;;2.50;;
72209;SDS011;60113;48.762;12.302;2022-08-16T06:25:20;3.70;;;2.50;;
72209;SDS011;60113;48.762;12.302;2022-08-16T06:27:47;2.72;;;2.10;;
72209;SDS011;60113;48.762;12.302;2022-08-16T06:30:13;4.28;;;2.33;;
72209;SDS011;60113;48.762;12.302;2022-08-16T06:32:38;8.30;;;2.63;;
72209;SDS011;60113;48.762;12.302;2022-08-16T06:35:05;4.40;;;2.30;;
72209;SDS011;60113;48.762;12.302;2022-08-16T06:37:31;7.80;;;2.40;;
72209;SDS011;60113;48.762;12.302;2022-08-16T06:39:56;2.00;;;1.80;;
72209;SDS011;60113;48.762;12.302;2022-08-16T06:42:22;12.10;;;1.92;;
72209;SDS011;60113;48.762;12.302;2022-08-16T06:44:48;5.72;;;2.28;;
72209;SDS011;60113;48.762;12.302;2022-08-16T06:47:14;1.92;;;1.40;;
72209;SDS011;60113;48.762;12.302;2022-08-16T06:49:40;2.97;;;1.75;;
72209;SDS011;60113;48.762;12.302;2022-08-16T06:52:06;4.07;;;1.63;;
72209;SDS011;60113;48.762;12.302;2022-08-16T06:54:33;4.55;;;1.60;;
72209;SDS011;60113;48.762;12.302;2022-08-16T06:56:59;3.35;;;1.70;;
72209;SDS011;60113;48.762;12.302;2022-08-16T06:59:25;4.05;;;1.80;;
72209;SDS011;60113;48.762;12.302;2022-08-16T07:01:51;5.13;;;1.88;;
72209;SDS011;60113;48.762;12.302;2022-08-16T07:04:18;4.93;;;2.10;;
72209;SDS011;60113;48.762;12.302;2022-08-16T07:06:44;3.45;;;2.00;;
72209;SDS011;60113;48.762;12.302;2022-08-16T07:09:10;2.80;;;1.50;;
72209;SDS011;60113;48.762;12.302;2022-08-16T07:11:37;2.20;;;1.80;;
72209;SDS011;60113;48.762;12.302;2022-08-16T07:14:02;2.63;;;2.05;;
72209;SDS011;60113;48.762;12.302;2022-08-16T07:16:28;8.15;;;1.83;;
72209;SDS011;60113;48.762;12.302;2022-08-16T07:18:53;4.30;;;1.65;;
72209;SDS011;60113;48.762;12.302;2022-08-16T07:21:20;2.67;;;1.70;;
72209;SDS011;60113;48.762;12.302;2022-08-16T07:23:46;4.03;;;1.77;;
72209;SDS011;60113;48.762;12.302;2022-08-16T07:26:17;6.20;;;1.73;;
72209;SDS011;60113;48.762;12.302;2022-08-16T07:28:45;5.38;;;1.70;;
72209;SDS011;60113;48.762;12.302;2022-08-16T07:31:11;3.35;;;1.77;;
72209;SDS011;60113;48.762;12.302;2022-08-16T07:33:37;3.55;;;1.80;;
72209;SDS011;60113;48.762;12.302;2022-08-16T07:36:04;2.97;;;1.83;;
72209;SDS011;60113;48.762;12.302;2022-08-16T07:38:31;5.32;;;2.00;;
72209;SDS011;60113;48.762;12.302;2022-08-16T07:40:57;4.68;;;1.95;;
72209;SDS011;60113;48.762;12.302;2022-08-16T07:43:23;2.50;;;1.85;;
72209;SDS011;60113;48.762;12.302;2022-08-16T07:45:49;3.50;;;2.10;;
72209;SDS011;60113;48.762;12.302;2022-08-16T07:48:15;6.93;;;1.70;;
72209;SDS011;60113;48.762;12.302;2022-08-16T07:50:41;3.40;;;2.10;;
72209;SDS011;60113;48.762;12.302;2022-08-16T07:53:07;3.70;;;1.90;;
72209;SDS011;60113;48.762;12.302;2022-08-16T07:55:33;6.47;;;1.70;;
72209;SDS011;60113;48.762;12.302;2022-08-16T07:58:00;3.47;;;1.90;;
72209;SDS011;60113;48.762;12.302;2022-08-16T08:00:26;4.80;;;1.70;;
72209;SDS011;60113;48.762;12.302;2022-08-16T08:02:52;2.95;;;1.60;;
72209;SDS011;60113;48.762;12.302;2022-08-16T08:05:20;3.95;;;1.90;;
72209;SDS011;60113;48.762;12.302;2022-08-16T08:07:47;3.53;;;1.90;;
72209;SDS011;60113;48.762;12.302;2022-08-16T08:10:13;3.03;;;1.58;;
72209;SDS011;60113;48.762;12.302;2022-08-16T08:12:39;1.77;;;1.50;;
72209;SDS011;60113;48.762;12.302;2022-08-16T08:15:08;2.97;;;1.52;;
72209;SDS011;60113;48.762;12.302;2022-08-16T08:17:35;3.95;;;1.55;;
72209;SDS011;60113;48.762;12.302;2022-08-16T08:20:05;8.52;;;4.80;;
72209;SDS011;60113;48.762;12.302;2022-08-16T08:22:33;6.78;;;1.80;;
72209;SDS011;60113;48.762;12.302;2022-08-16T08:27:45;4.22;;;1.80;;
72209;SDS011;60113;48.762;12.302;2022-08-16T08:30:12;4.43;;;1.55;;
72209;SDS011;60113;48.762;12.302;2022-08-16T08:32:38;3.55;;;1.73;;
72209;SDS011;60113;48.762;12.302;2022-08-16T08:35:05;1.63;;;1.45;;
72209;SDS011;60113;48.762;12.302;2022-08-16T08:37:32;3.10;;;1.45;;
72209;SDS011;60113;48.762;12.302;2022-08-16T08:40:00;2.53;;;1.60;;
72209;SDS011;60113;48.762;12.302;2022-08-16T08:42:28;3.17;;;1.58;;
72209;SDS011;60113;48.762;12.302;2022-08-16T08:44:54;3.80;;;1.88;;
72209;SDS011;60113;48.762;12.302;2022-08-16T08:47:20;1.88;;;1.23;;
72209;SDS011;60113;48.762;12.302;2022-08-16T08:49:46;3.25;;;1.50;;
72209;SDS011;60113;48.762;12.302;2022-08-16T08:52:13;2.28;;;1.40;;
72209;SDS011;60113;48.762;12.302;2022-08-16T08:54:39;5.50;;;2.30;;
72209;SDS011;60113;48.762;12.302;2022-08-16T08:57:05;5.90;;;1.88;;
72209;SDS011;60113;48.762;12.302;2022-08-16T08:59:32;3.30;;;1.30;;
72209;SDS011;60113;48.762;12.302;2022-08-16T09:01:57;4.05;;;1.45;;
72209;SDS011;60113;48.762;12.302;2022-08-16T09:04:26;3.70;;;1.55;;
72209;SDS011;60113;48.762;12.302;2022-08-16T09:06:53;5.25;;;1.80;;
72209;SDS011;60113;48.762;12.302;2022-08-16T09:09:21;3.67;;;1.45;;
72209;SDS011;60113;48.762;12.302;2022-08-16T09:11:47;3.05;;;1.80;;
72209;SDS011;60113;48.762;12.302;2022-08-16T09:14:13;4.30;;;1.73;;
72209;SDS011;60113;48.762;12.302;2022-08-16T09:16:40;3.03;;;1.50;;
72209;SDS011;60113;48.762;12.302;2022-08-16T09:19:05;3.45;;;1.73;;
72209;SDS011;60113;48.762;12.302;2022-08-16T09:21:33;3.42;;;1.80;;
72209;SDS011;60113;48.762;12.302;2022-08-16T09:24:01;2.78;;;1.88;;
72209;SDS011;60113;48.762;12.302;2022-08-16T09:26:28;4.25;;;1.58;;
72209;SDS011;60113;48.762;12.302;2022-08-16T09:28:53;2.55;;;1.48;;
72209;SDS011;60113;48.762;12.302;2022-08-16T09:31:19;3.08;;;1.60;;
72209;SDS011;60113;48.762;12.302;2022-08-16T09:33:44;4.30;;;1.52;;
72209;SDS011;60113;48.762;12.302;2022-08-16T09:36:10;4.65;;;1.40;;
72209;SDS011;60113;48.762;12.302;2022-08-16T09:38:36;2.22;;;1.60;;
72209;SDS011;60113;48.762;12.302;2022-08-16T09:41:04;2.53;;;1.55;;
72209;SDS011;60113;48.762;12.302;2022-08-16T09:43:32;6.63;;;1.65;;
72209;SDS011;60113;48.762;12.302;2022-08-16T09:45:59;6.55;;;1.73;;
72209;SDS011;60113;48.762;12.302;2022-08-16T09:48:28;3.28;;;1.65;;
72209;SDS011;60113;48.762;12.302;2022-08-16T09:50:54;4.18;;;1.65;;
72209;SDS011;60113;48.762;12.302;2022-08-16T09:53:20;2.10;;;1.40;;
72209;SDS011;60113;48.762;12.302;2022-08-16T09:55:48;7.18;;;1.40;;
72209;SDS011;60113;48.762;12.302;2022-08-16T09:58:20;3.55;;;1.70;;
72209;SDS011;60113;48.762;12.302;2022-08-16T10:00:48;2.25;;;1.42;;
72209;SDS011;60113;48.762;12.302;2022-08-16T10:03:15;2.67;;;1.52;;
72209;SDS011;60113;48.762;12.302;2022-08-16T10:05:41;4.28;;;1.55;;
72209;SDS011;60113;48.762;12.302;2022-08-16T10:08:07;4.40;;;1.60;;
72209;SDS011;60113;48.762;12.302;2022-08-16T10:10:33;5.57;;;1.58;;
72209;SDS011;60113;48.762;12.302;2022-08-16T10:12:59;2.83;;;1.60;;
72209;SDS011;60113;48.762;12.302;2022-08-16T10:15:42;11.35;;;1.63;;
72209;SDS011;60113;48.762;12.302;2022-08-16T10:18:10;3.15;;;1.52;;
72209;SDS011;60113;48.762;12.302;2022-08-16T10:20:39;3.53;;;1.67;;
72209;SDS011;60113;48.762;12.302;2022-08-16T10:23:08;4.18;;;1.60;;
72209;SDS011;60113;48.762;12.302;2022-08-16T10:25:36;4.60;;;1.70;;
72209;SDS011;60113;48.762;12.302;2022-08-16T10:28:04;3.20;;;1.85;;
72209;SDS011;60113;48.762;12.302;2022-08-16T10:30:31;3.30;;;1.50;;
72209;SDS011;60113;48.762;12.302;2022-08-16T10:32:56;7.35;;;2.08;;
72209;SDS011;60113;48.762;12.302;2022-08-16T10:35:22;3.53;;;1.73;;
72209;SDS011;60113;48.762;12.302;2022-08-16T10:37:48;4.97;;;1.80;;
72209;SDS011;60113;48.762;12.302;2022-08-16T10:40:15;4.15;;;2.00;;
72209;SDS011;60113;48.762;12.302;2022-08-16T10:42:41;8.05;;;2.20;;
72209;SDS011;60113;48.762;12.302;2022-08-16T10:45:06;5.68;;;1.70;;
72209;SDS011;60113;48.762;12.302;2022-08-16T10:47:32;7.90;;;2.33;;
72209;SDS011;60113;48.762;12.302;2022-08-16T10:49:59;5.95;;;2.22;;
72209;SDS011;60113;48.762;12.302;2022-08-16T10:52:25;3.30;;;1.58;;
72209;SDS011;60113;48.762;12.302;2022-08-16T10:54:51;3.13;;;1.52;;
72209;SDS011;60113;48.762;12.302;2022-08-16T10:57:17;3.58;;;1.80;;
72209;SDS011;60113;48.762;12.302;2022-08-16T10:59:42;5.18;;;1.70;;
72209;SDS011;60113;48.762;12.302;2022-08-16T11:02:08;4.18;;;1.80;;
72209;SDS011;60113;48.762;12.302;2022-08-16T11:04:43;7.90;;;1.35;;
72209;SDS011;60113;48.762;12.302;2022-08-16T11:07:08;5.45;;;1.63;;
72209;SDS011;60113;48.762;12.302;2022-08-16T11:09:37;2.80;;;1.60;;
72209;SDS011;60113;48.762;12.302;2022-08-16T11:12:07;3.78;;;1.58;;
72209;SDS011;60113;48.762;12.302;2022-08-16T11:14:34;5.38;;;1.77;;
72209;SDS011;60113;48.762;12.302;2022-08-16T11:17:02;3.42;;;1.55;;
72209;SDS011;60113;48.762;12.302;2022-08-16T11:19:30;3.72;;;1.40;;
72209;SDS011;60113;48.762;12.302;2022-08-16T11:21:57;4.75;;;1.50;;
72209;SDS011;60113;48.762;12.302;2022-08-16T11:24:24;3.30;;;1.70;;
72209;SDS011;60113;48.762;12.302;2022-08-16T11:26:50;3.65;;;2.10;;
72209;SDS011;60113;48.762;12.302;2022-08-16T11:29:17;2.42;;;1.50;;
72209;SDS011;60113;48.762;12.302;2022-08-16T11:31:43;3.05;;;1.58;;
72209;SDS011;60113;48.762;12.302;2022-08-16T11:34:12;3.17;;;1.50;;
72209;SDS011;60113;48.762;12.302;2022-08-16T11:36:38;3.03;;;1.65;;
72209;SDS011;60113;48.762;12.302;2022-08-16T11:39:05;3.72;;;1.70;;
72209;SDS011;60113;48.762;12.302;2022-08-16T11:41:31;2.55;;;1.55;;
72209;SDS011;60113;48.762;12.302;2022-08-16T11:44:00;3.10;;;1.40;;
72209;SDS011;60113;48.762;12.302;2022-08-16T11:46:26;4.18;;;1.40;;
72209;SDS011;60113;48.762;12.302;2022-08-16T11:48:52;2.28;;;1.50;;
72209;SDS011;60113;48.762;12.302;2022-08-16T11:51:19;4.13;;;1.80;;
72209;SDS011;60113;48.762;12.302;2022-08-16T11:53:45;1.58;;;1.40;;
72209;SDS011;60113;48.762;12.302;2022-08-16T11:56:10;3.13;;;1.52;;
72209;SDS011;60113;48.762;12.302;2022-08-16T11:58:36;3.05;;;1.40;;
72209;SDS011;60113;48.762;12.302;2022-08-16T12:01:04;3.08;;;1.50;;
72209;SDS011;60113;48.762;12.302;2022-08-16T12:03:31;5.20;;;1.80;;
72209;SDS011;60113;48.762;12.302;2022-08-16T12:05:59;3.13;;;1.70;;
72209;SDS011;60113;48.762;12.302;2022-08-16T12:08:27;3.05;;;1.48;;
72209;SDS011;60113;48.762;12.302;2022-08-16T12:10:54;3.72;;;1.40;;
72209;SDS011;60113;48.762;12.302;2022-08-16T12:13:20;6.50;;;1.90;;
72209;SDS011;60113;48.762;12.302;2022-08-16T12:15:46;2.38;;;1.45;;
72209;SDS011;60113;48.762;12.302;2022-08-16T12:18:11;8.57;;;1.90;;
72209;SDS011;60113;48.762;12.302;2022-08-16T12:20:38;1.65;;;1.30;;
72209;SDS011;60113;48.762;12.302;2022-08-16T12:23:06;2.22;;;1.30;;
72209;SDS011;60113;48.762;12.302;2022-08-16T12:25:32;4.90;;;1.77;;
72209;SDS011;60113;48.762;12.302;2022-08-16T12:27:59;4.18;;;1.40;;
72209;SDS011;60113;48.762;12.302;2022-08-16T12:30:28;3.85;;;1.70;;
72209;SDS011;60113;48.762;12.302;2022-08-16T12:32:57;2.92;;;1.73;;
72209;SDS011;60113;48.762;12.302;2022-08-16T12:35:25;2.38;;;1.50;;
72209;SDS011;60113;48.762;12.302;2022-08-16T12:37:52;4.43;;;1.50;;
72209;SDS011;60113;48.762;12.302;2022-08-16T12:40:19;3.72;;;1.60;;
72209;SDS011;60113;48.762;12.302;2022-08-16T12:42:48;5.60;;;1.60;;
72209;SDS011;60113;48.762;12.302;2022-08-16T12:45:16;4.43;;;1.55;;
72209;SDS011;60113;48.762;12.302;2022-08-16T12:47:43;3.95;;;1.73;;
72209;SDS011;60113;48.762;12.302;2022-08-16T12:50:27;4.30;;;1.40;;
72209;SDS011;60113;48.762;12.302;2022-08-16T12:52:53;3.13;;;1.58;;
72209;SDS011;60113;48.762;12.302;2022-08-16T12:55:20;5.00;;;1.73;;
72209;SDS011;60113;48.762;12.302;2022-08-16T12:57:48;4.88;;;1.60;;
72209;SDS011;60113;48.762;12.302;2022-08-16T13:00:17;2.13;;;1.38;;
72209;SDS011;60113;48.762;12.302;2022-08-16T13:02:44;4.45;;;1.38;;
72209;SDS011;60113;48.762;12.302;2022-08-16T13:05:11;4.57;;;1.48;;
72209;SDS011;60113;48.762;12.302;2022-08-16T13:07:41;7.88;;;1.50;;
72209;SDS011;60113;48.762;12.302;2022-08-16T13:13:18;3.47;;;1.40;;
72209;SDS011;60113;48.762;12.302;2022-08-16T13:18:28;2.10;;;1.30;;
72209;SDS011;60113;48.762;12.302;2022-08-16T13:20:58;3.45;;;1.58;;
72209;SDS011;60113;48.762;12.302;2022-08-16T13:23:24;3.55;;;1.20;;
72209;SDS011;60113;48.762;12.302;2022-08-16T13:25:50;2.88;;;1.33;;
72209;SDS011;60113;48.762;12.302;2022-08-16T13:28:17;2.92;;;1.65;;
72209;SDS011;60113;48.762;12.302;2022-08-16T13:30:51;2.35;;;1.40;;
72209;SDS011;60113;48.762;12.302;2022-08-16T13:33:20;4.32;;;1.60;;
72209;SDS011;60113;48.762;12.302;2022-08-16T13:35:51;4.38;;;1.50;;
72209;SDS011;60113;48.762;12.302;2022-08-16T13:38:18;2.58;;;1.52;;
72209;SDS011;60113;48.762;12.302;2022-08-16T13:40:44;3.83;;;1.70;;
72209;SDS011;60113;48.762;12.302;2022-08-16T13:45:47;4.32;;;1.60;;
72209;SDS011;60113;48.762;12.302;2022-08-16T13:48:12;3.78;;;1.60;;
72209;SDS011;60113;48.762;12.302;2022-08-16T13:50:38;4.32;;;1.35;;
72209;SDS011;60113;48.762;12.302;2022-08-16T13:53:04;3.20;;;1.30;;
72209;SDS011;60113;48.762;12.302;2022-08-16T13:55:29;4.53;;;1.30;;
72209;SDS011;60113;48.762;12.302;2022-08-16T13:57:55;2.53;;;1.50;;
72209;SDS011;60113;48.762;12.302;2022-08-16T14:00:21;2.08;;;1.30;;
72209;SDS011;60113;48.762;12.302;2022-08-16T14:02:46;5.55;;;1.48;;
72209;SDS011;60113;48.762;12.302;2022-08-16T14:05:13;2.20;;;1.48;;
72209;SDS011;60113;48.762;12.302;2022-08-16T14:07:39;2.53;;;1.40;;
72209;SDS011;60113;48.762;12.302;2022-08-16T14:10:05;3.05;;;1.60;;
72209;SDS011;60113;48.762;12.302;2022-08-16T14:12:34;4.22;;;1.75;;
72209;SDS011;60113;48.762;12.302;2022-08-16T14:15:03;4.43;;;1.42;;
72209;SDS011;60113;48.762;12.302;2022-08-16T14:17:30;2.38;;;1.23;;
72209;SDS011;60113;48.762;12.302;2022-08-16T14:19:56;8.10;;;1.48;;
72209;SDS011;60113;48.762;12.302;2022-08-16T14:22:26;3.85;;;1.33;;
72209;SDS011;60113;48.762;12.302;2022-08-16T14:24:55;4.68;;;1.50;;
72209;SDS011;60113;48.762;12.302;2022-08-16T14:27:28;1.60;;;1.10;;
72209;SDS011;60113;48.762;12.302;2022-08-16T14:29:59;6.30;;;1.55;;
72209;SDS011;60113;48.762;12.302;2022-08-16T14:32:26;5.65;;;1.33;;
72209;SDS011;60113;48.762;12.302;2022-08-16T14:34:53;2.55;;;1.20;;
72209;SDS011;60113;48.762;12.302;2022-08-16T14:37:21;2.92;;;1.30;;
72209;SDS011;60113;48.762;12.302;2022-08-16T14:39:47;5.40;;;1.27;;
72209;SDS011;60113;48.762;12.302;2022-08-16T14:42:14;4.68;;;1.50;;
72209;SDS011;60113;48.762;12.302;2022-08-16T14:44:42;1.65;;;1.20;;
72209;SDS011;60113;48.762;12.302;2022-08-16T14:47:09;4.05;;;1.27;;